createdAt,value
2023-02-12T00:02:16.442Z,7.97
2023-02-12T00:04:45.282Z,9.30
2023-02-12T00:07:13.877Z,8.63
2023-02-12T00:09:42.805Z,7.60
2023-02-12T00:12:11.446Z,8.20
2023-02-12T00:14:43.024Z,9.10
2023-02-12T00:17:11.645Z,9.40
2023-02-12T00:19:40.324Z,8.93
2023-02-12T00:22:08.987Z,8.33
2023-02-12T00:24:37.712Z,8.33
2023-02-12T00:27:06.356Z,9.57
2023-02-12T00:29:35.091Z,8.97
2023-02-12T00:32:05.263Z,8.90
2023-02-12T00:34:34.087Z,8.73
2023-02-12T00:37:02.924Z,8.10
2023-02-12T00:39:31.507Z,8.67
2023-02-12T00:42:01.818Z,8.63
2023-02-12T00:44:30.360Z,8.37
2023-02-12T00:47:04.900Z,8.30
2023-02-12T00:49:35.741Z,8.03
2023-02-12T00:52:06.187Z,8.50
2023-02-12T00:54:34.863Z,9.43
2023-02-12T00:57:03.587Z,9.60
2023-02-12T00:59:32.597Z,8.03
2023-02-12T01:02:01.298Z,8.30
2023-02-12T01:04:29.940Z,8.87
2023-02-12T01:06:58.655Z,9.23
2023-02-12T01:09:27.471Z,8.73
2023-02-12T01:11:56.180Z,8.67
2023-02-12T01:14:24.876Z,8.93
2023-02-12T01:16:53.489Z,9.33
2023-02-12T01:19:22.145Z,9.60
2023-02-12T01:21:50.855Z,10.13
2023-02-12T01:24:19.532Z,9.80
2023-02-12T01:26:48.094Z,10.27
2023-02-12T01:29:16.771Z,11.33
2023-02-12T01:31:45.643Z,10.40
2023-02-12T01:34:14.609Z,10.30
2023-02-12T01:36:43.365Z,10.57
2023-02-12T01:39:12.906Z,10.70
2023-02-12T01:41:44.525Z,10.67
2023-02-12T01:44:21.728Z,10.70
2023-02-12T01:46:53.365Z,10.63
2023-02-12T01:49:41.929Z,9.87
2023-02-12T01:52:28.442Z,11.27
2023-02-12T01:55:00.101Z,10.50
2023-02-12T01:57:31.793Z,10.70
2023-02-12T02:00:03.625Z,10.27
2023-02-12T02:02:33.462Z,10.63
2023-02-12T02:05:05.426Z,10.80
2023-02-12T02:07:34.698Z,12.20
2023-02-12T02:10:04.050Z,9.90
2023-02-12T02:12:50.713Z,12.03
2023-02-12T02:15:19.423Z,11.70
2023-02-12T02:17:53.852Z,12.00
2023-02-12T02:20:40.693Z,11.30
2023-02-12T02:23:48.160Z,12.77
2023-02-12T02:26:25.596Z,11.77
2023-02-12T02:29:18.520Z,10.20
2023-02-12T02:31:50.180Z,12.07
2023-02-12T02:34:30.862Z,13.63
2023-02-12T02:37:08.411Z,13.63
2023-02-12T02:39:42.977Z,13.90
2023-02-12T02:42:14.326Z,12.20
2023-02-12T02:44:54.881Z,13.67
2023-02-12T02:47:26.607Z,12.93
2023-02-12T02:50:01.182Z,14.47
2023-02-12T02:52:44.834Z,12.77
2023-02-12T02:55:16.202Z,13.77
2023-02-12T02:57:50.841Z,13.77
2023-02-12T03:00:34.329Z,14.57
2023-02-12T03:03:15.724Z,13.37
2023-02-12T03:05:47.324Z,13.77
2023-02-12T03:08:27.731Z,13.87
2023-02-12T03:10:59.269Z,13.67
2023-02-12T03:13:36.539Z,12.83
2023-02-12T03:16:26.442Z,13.70
2023-02-12T03:18:58.035Z,13.80
2023-02-12T03:21:32.295Z,12.27
2023-02-12T03:24:04.206Z,13.23
2023-02-12T03:26:48.070Z,13.53
2023-02-12T03:29:16.906Z,13.77
2023-02-12T03:31:51.157Z,13.83
2023-02-12T03:34:37.759Z,14.63
2023-02-12T03:37:17.896Z,14.20
2023-02-12T03:40:04.971Z,14.10
2023-02-12T03:42:39.624Z,13.43
2023-02-12T03:45:26.735Z,14.03
2023-02-12T03:48:22.153Z,14.03
2023-02-12T03:50:59.938Z,14.47
2023-02-12T03:53:30.180Z,13.77
2023-02-12T03:56:10.729Z,14.10
2023-02-12T03:58:41.990Z,13.43
2023-02-12T04:01:11.852Z,13.57
2023-02-12T04:03:41.749Z,13.17
2023-02-12T04:06:25.959Z,14.20
2023-02-12T04:08:57.454Z,13.73
2023-02-12T04:11:51.366Z,13.20
2023-02-12T04:14:31.897Z,13.30
2023-02-12T04:17:21.150Z,13.80
2023-02-12T04:20:14.397Z,14.47
2023-02-12T04:23:02.772Z,14.33
2023-02-12T04:25:55.927Z,14.63
2023-02-12T04:28:36.243Z,13.57
2023-02-12T04:31:22.900Z,14.63
2023-02-12T04:34:06.814Z,14.53
2023-02-12T04:36:41.185Z,13.30
2023-02-12T04:39:12.914Z,14.80
2023-02-12T04:41:41.994Z,13.73
2023-02-12T04:44:23.179Z,13.70
2023-02-12T04:46:52.650Z,14.90
2023-02-12T04:49:22.986Z,14.33
2023-02-12T04:51:52.461Z,14.63
2023-02-12T04:54:23.246Z,15.60
2023-02-12T04:56:52.180Z,13.70
2023-02-12T04:59:20.901Z,13.37
2023-02-12T05:01:49.760Z,13.17
2023-02-12T05:04:20.050Z,12.27
2023-02-12T05:06:48.785Z,12.93
2023-02-12T05:09:20.148Z,14.20
2023-02-12T05:11:49.038Z,13.87
2023-02-12T05:14:17.832Z,13.27
2023-02-12T05:16:46.643Z,14.17
2023-02-12T05:19:15.312Z,12.70
2023-02-12T05:21:44.182Z,11.90
2023-02-12T05:24:12.949Z,13.07
2023-02-12T05:26:41.603Z,9.93
2023-02-12T05:29:10.433Z,12.37
2023-02-12T05:31:39.216Z,12.40
2023-02-12T05:34:10.234Z,11.00
2023-02-12T05:36:39.467Z,11.83
2023-02-12T05:39:09.208Z,11.73
2023-02-12T05:41:37.971Z,10.90
2023-02-12T05:44:07.663Z,12.43
2023-02-12T05:46:36.306Z,13.33
2023-02-12T05:49:05.131Z,11.27
2023-02-12T05:51:34.403Z,12.77
2023-02-12T05:54:06.003Z,10.17
2023-02-12T05:56:40.606Z,12.87
2023-02-12T05:59:11.534Z,13.40
2023-02-12T06:01:42.654Z,13.27
2023-02-12T06:04:16.963Z,13.97
2023-02-12T06:06:45.962Z,13.77
2023-02-12T06:09:15.523Z,14.13
2023-02-12T06:11:44.450Z,14.03
2023-02-12T06:14:15.994Z,15.07
2023-02-12T06:16:47.512Z,13.37
2023-02-12T06:19:16.415Z,13.40
2023-02-12T06:21:45.458Z,13.27
2023-02-12T06:24:15.653Z,10.57
2023-02-12T06:26:44.434Z,12.73
2023-02-12T06:29:13.428Z,13.50
2023-02-12T06:31:52.269Z,11.10
2023-02-12T06:34:21.122Z,11.67
2023-02-12T06:36:49.881Z,12.40
2023-02-12T06:39:19.943Z,12.63
2023-02-12T06:41:49.128Z,13.00
2023-02-12T06:44:19.763Z,14.30
2023-02-12T06:46:48.592Z,13.27
2023-02-12T06:49:17.383Z,13.57
2023-02-12T06:51:48.503Z,13.60
2023-02-12T06:54:18.369Z,11.60
2023-02-12T06:56:47.523Z,13.50
2023-02-12T06:59:18.540Z,13.40
2023-02-12T07:01:47.401Z,12.60
2023-02-12T07:04:17.665Z,12.87
2023-02-12T07:06:46.965Z,13.03
2023-02-12T07:09:15.954Z,13.10
2023-02-12T07:11:46.382Z,12.77
2023-02-12T07:14:16.513Z,13.63
2023-02-12T07:16:48.090Z,13.17
2023-02-12T07:19:18.431Z,14.27
2023-02-12T07:21:47.285Z,14.03
2023-02-12T07:24:18.631Z,11.90
2023-02-12T07:26:47.642Z,11.97
2023-02-12T07:29:17.260Z,13.57
2023-02-12T07:31:46.231Z,14.27
2023-02-12T07:34:16.640Z,14.23
2023-02-12T07:36:45.420Z,14.20
2023-02-12T07:39:17.221Z,13.53
2023-02-12T07:41:45.940Z,13.97
2023-02-12T07:44:16.265Z,14.50
2023-02-12T07:46:48.684Z,14.27
2023-02-12T07:49:20.222Z,15.30
2023-02-12T07:51:50.229Z,14.10
2023-02-12T07:54:20.526Z,13.87
2023-02-12T07:56:49.229Z,14.60
2023-02-12T07:59:19.551Z,16.83
2023-02-12T08:01:50.639Z,12.83
2023-02-12T08:04:22.305Z,16.03
2023-02-12T08:06:54.196Z,15.83
2023-02-12T08:09:33.706Z,16.73
2023-02-12T08:12:02.593Z,16.17
2023-02-12T08:14:41.577Z,16.47
2023-02-12T08:17:10.454Z,14.43
2023-02-12T08:25:40.266Z,15.90
2023-02-12T08:28:14.376Z,17.57
2023-02-12T08:30:45.255Z,14.77
2023-02-12T08:33:18.192Z,15.30
2023-02-12T08:38:54.723Z,16.67
2023-02-12T08:41:29.029Z,17.03
2023-02-12T08:44:00.747Z,15.33
2023-02-12T08:46:32.635Z,17.47
2023-02-12T08:49:13.387Z,16.40
2023-02-12T08:51:49.212Z,15.93
2023-02-12T08:54:34.401Z,15.93
2023-02-12T08:57:04.413Z,16.83
2023-02-12T08:59:38.270Z,18.10
2023-02-12T09:02:14.806Z,16.57
2023-02-12T09:04:52.978Z,18.00
2023-02-12T09:07:32.123Z,17.67
2023-02-12T09:10:18.031Z,18.90
2023-02-12T09:12:49.697Z,18.27
2023-02-12T09:15:27.502Z,19.47
2023-02-12T09:17:53.693Z,20.60
2023-02-12T09:20:24.055Z,19.90
2023-02-12T09:22:54.334Z,21.47
2023-02-12T09:25:23.251Z,19.70
2023-02-12T09:27:54.399Z,19.57
2023-02-12T09:36:52.902Z,20.07
2023-02-12T09:39:21.854Z,21.00
2023-02-12T09:45:31.143Z,19.70
2023-02-12T09:51:25.212Z,20.00
2023-02-12T10:18:28.711Z,24.40
2023-02-12T10:49:16.903Z,25.77
2023-02-12T10:52:53.056Z,23.77
2023-02-12T10:55:42.753Z,22.07
2023-02-12T10:58:31.354Z,21.97
2023-02-12T11:04:15.949Z,22.33
2023-02-12T11:07:42.238Z,23.13
2023-02-12T11:10:24.876Z,23.23
2023-02-12T11:13:12.324Z,24.80
2023-02-12T11:15:52.705Z,21.30
2023-02-12T11:47:45.935Z,22.50
2023-02-12T11:50:46.317Z,107.10
2023-02-12T11:59:42.476Z,20.67
2023-02-12T12:19:55.954Z,21.30
2023-02-12T12:22:55.335Z,22.67
2023-02-12T12:25:58.629Z,20.93
2023-02-12T12:28:30.823Z,19.70
2023-02-12T12:31:02.942Z,20.77
2023-02-12T12:33:34.700Z,22.07
2023-02-12T12:36:29.087Z,22.20
2023-02-12T12:39:30.835Z,22.40
2023-02-12T12:42:28.397Z,19.37
2023-02-12T12:45:01.586Z,21.20
2023-02-12T12:51:11.640Z,22.53
2023-02-12T12:53:49.764Z,22.60
2023-02-12T12:56:30.369Z,23.67
2023-02-12T13:02:48.998Z,23.33
2023-02-12T13:05:52.101Z,20.80
2023-02-12T13:08:23.854Z,19.43
2023-02-12T13:11:10.597Z,23.50
2023-02-12T13:13:46.701Z,23.30
2023-02-12T13:43:11.357Z,20.97
2023-02-12T13:46:28.677Z,21.00
2023-02-12T13:49:02.927Z,23.47
2023-02-12T13:51:43.568Z,23.40
2023-02-12T13:54:32.454Z,22.87
2023-02-12T13:57:04.502Z,20.70
2023-02-12T13:59:44.803Z,22.60
2023-02-12T14:02:39.424Z,23.57
2023-02-12T14:05:27.319Z,24.90
2023-02-12T14:08:13.075Z,26.70
2023-02-12T14:10:50.358Z,25.33
2023-02-12T14:13:28.949Z,25.43
2023-02-12T14:16:05.988Z,24.90
2023-02-12T14:21:44.027Z,24.57
2023-02-12T14:24:39.297Z,25.00
2023-02-12T14:34:16.732Z,27.03
2023-02-12T14:47:22.907Z,25.80
2023-02-12T14:56:46.194Z,27.50
2023-02-12T14:59:22.373Z,23.83
2023-02-12T15:18:30.388Z,28.17
2023-02-12T15:24:52.040Z,26.80
2023-02-12T15:51:57.002Z,32.57
2023-02-12T15:55:19.363Z,36.60
2023-02-12T15:57:59.013Z,32.30
2023-02-12T16:00:51.954Z,30.40
2023-02-12T16:03:33.653Z,31.03
2023-02-12T16:06:17.050Z,32.73
2023-02-12T16:09:00.862Z,32.63
2023-02-12T16:11:34.351Z,32.03
2023-02-12T16:14:25.807Z,31.00
2023-02-12T16:16:56.919Z,32.63
2023-02-12T16:19:30.671Z,33.90
2023-02-12T16:22:07.839Z,32.50
2023-02-12T16:24:42.204Z,33.33
2023-02-12T16:27:19.586Z,32.57
2023-02-12T16:29:51.113Z,37.20
2023-02-12T16:32:41.025Z,49.87
2023-02-12T16:35:17.674Z,34.10
2023-02-12T16:38:04.529Z,34.37
2023-02-12T16:40:36.557Z,33.47
2023-02-12T16:43:08.112Z,34.70
2023-02-12T16:45:42.098Z,40.83
2023-02-12T16:48:27.654Z,35.17
2023-02-12T16:50:58.917Z,34.20
2023-02-12T16:53:41.672Z,36.73
2023-02-12T16:56:13.339Z,36.07
2023-02-12T16:58:43.437Z,35.27
2023-02-12T17:01:15.036Z,35.13
2023-02-12T17:03:46.472Z,123.93
2023-02-12T17:06:16.047Z,38.37
2023-02-12T17:08:44.768Z,36.20
2023-02-12T17:11:15.345Z,37.73
2023-02-12T17:13:45.135Z,36.97
2023-02-12T17:16:25.087Z,37.07
2023-02-12T17:18:45.064Z,38.10
2023-02-12T17:21:28.669Z,46.63
2023-02-12T17:23:57.733Z,42.80
2023-02-12T17:26:26.985Z,39.00
2023-02-12T17:28:56.666Z,38.13
2023-02-12T17:31:25.431Z,39.70
2023-02-12T17:33:54.068Z,65.90
2023-02-12T17:36:23.340Z,136.63
2023-02-12T17:38:52.027Z,47.10
2023-02-12T17:41:21.044Z,44.13
2023-02-12T17:43:52.582Z,40.13
2023-02-12T17:46:26.686Z,40.63
2023-02-12T17:48:55.142Z,40.53
2023-02-12T17:51:24.106Z,40.60
2023-02-12T17:53:55.798Z,41.77
2023-02-12T17:56:28.385Z,39.83
2023-02-12T17:58:57.178Z,41.37
2023-02-12T18:01:26.322Z,41.17
2023-02-12T18:03:58.248Z,69.73
2023-02-12T18:06:32.477Z,50.67
2023-02-12T18:09:04.929Z,45.37
2023-02-12T18:11:33.746Z,77.57
2023-02-12T18:14:05.546Z,46.27
2023-02-12T18:16:36.669Z,49.07
2023-02-12T18:19:06.141Z,51.90
2023-02-12T18:21:39.319Z,45.83
2023-02-12T18:24:08.699Z,46.47
2023-02-12T18:29:21.118Z,54.20
2023-02-12T18:35:19.156Z,44.40
2023-02-12T18:37:53.158Z,45.67
2023-02-12T18:40:38.419Z,46.63
2023-02-12T18:43:18.592Z,50.23
2023-02-12T18:45:51.851Z,48.37
2023-02-12T18:48:20.817Z,46.50
2023-02-12T18:51:15.289Z,47.20
2023-02-12T18:55:36.670Z,46.00
2023-02-12T18:56:31.663Z,44.53
2023-02-12T18:59:03.415Z,45.30
2023-02-12T19:01:36.922Z,41.27
2023-02-12T19:04:10.141Z,47.83
2023-02-12T19:07:04.220Z,44.30
2023-02-12T19:09:32.999Z,37.80
2023-02-12T19:12:01.842Z,40.20
2023-02-12T19:14:30.951Z,42.50
2023-02-12T19:16:59.874Z,40.17
2023-02-12T19:19:29.518Z,40.47
2023-02-12T19:22:00.002Z,38.53
2023-02-12T19:24:44.462Z,41.43
2023-02-12T19:26:59.303Z,40.80
2023-02-12T19:29:28.371Z,42.37
2023-02-12T19:31:59.791Z,42.63
2023-02-12T19:34:37.371Z,46.40
2023-02-12T19:37:03.676Z,43.07
2023-02-12T19:42:22.656Z,44.17
2023-02-12T19:44:51.272Z,42.13
2023-02-12T19:47:21.608Z,44.27
2023-02-12T19:49:50.668Z,44.13
2023-02-12T19:52:21.258Z,41.80
2023-02-12T19:54:51.619Z,47.20
2023-02-12T19:57:22.157Z,45.00
2023-02-12T19:59:50.876Z,47.40
2023-02-12T20:02:22.273Z,47.37
2023-02-12T20:04:51.113Z,46.00
2023-02-12T20:07:19.813Z,48.27
2023-02-12T20:09:52.257Z,46.87
2023-02-12T20:12:20.943Z,45.73
2023-02-12T20:14:49.523Z,56.47
2023-02-12T20:17:18.628Z,81.87
2023-02-12T20:19:48.846Z,51.13
2023-02-12T20:22:17.416Z,48.47
2023-02-12T20:24:50.384Z,49.47
2023-02-12T20:27:25.276Z,48.37
2023-02-12T20:29:56.184Z,50.97
2023-02-12T20:35:18.640Z,52.37
2023-02-12T20:38:20.120Z,54.60
2023-02-12T20:40:49.024Z,52.80
2023-02-12T20:43:17.998Z,54.30
2023-02-12T20:45:51.211Z,56.47
2023-02-12T20:48:33.124Z,55.33
2023-02-12T20:51:13.493Z,55.27
2023-02-12T20:53:48.297Z,54.43
2023-02-12T20:56:29.640Z,54.93
2023-02-12T21:01:50.824Z,55.03
2023-02-12T21:04:24.683Z,56.27
2023-02-12T21:06:53.626Z,55.10
2023-02-12T21:09:22.391Z,53.73
2023-02-12T21:11:57.308Z,56.33
2023-02-12T21:14:29.386Z,53.90
2023-02-12T21:16:58.621Z,53.80
2023-02-12T21:19:30.280Z,53.10
2023-02-12T21:21:59.257Z,53.87
2023-02-12T21:24:28.085Z,53.87
2023-02-12T21:26:59.755Z,54.57
2023-02-12T21:29:30.050Z,56.53
2023-02-12T21:31:58.878Z,52.90
2023-02-12T21:34:27.793Z,50.43
2023-02-12T21:36:57.662Z,54.73
2023-02-12T21:39:28.925Z,52.17
2023-02-12T21:42:03.242Z,52.40
2023-02-12T21:44:35.699Z,55.73
2023-02-12T21:47:10.003Z,53.67
2023-02-12T21:49:39.659Z,51.97
2023-02-12T21:55:04.078Z,47.63
2023-02-12T21:57:53.353Z,66.10
2023-02-12T22:00:35.074Z,47.23
2023-02-12T22:03:06.279Z,50.13
2023-02-12T22:05:35.651Z,51.27
2023-02-12T22:08:04.734Z,50.37
2023-02-12T22:10:33.260Z,48.37
2023-02-12T22:13:03.699Z,49.10
2023-02-12T22:15:32.514Z,52.07
2023-02-12T22:18:01.288Z,48.77
2023-02-12T22:20:30.445Z,47.10
2023-02-12T22:22:59.758Z,49.30
2023-02-12T22:25:28.466Z,48.97
2023-02-12T22:27:57.239Z,50.13
2023-02-12T22:30:26.019Z,48.40
2023-02-12T22:32:56.173Z,49.27
2023-02-12T22:35:24.851Z,48.17
2023-02-12T22:37:53.464Z,49.57
2023-02-12T22:40:22.159Z,48.23
2023-02-12T22:42:50.699Z,46.37
2023-02-12T22:45:19.652Z,50.07
2023-02-12T22:47:48.284Z,47.60
2023-02-12T22:50:16.963Z,51.37
2023-02-12T22:52:45.763Z,50.13
2023-02-12T22:55:14.476Z,49.50
2023-02-12T22:57:43.214Z,49.40
2023-02-12T23:00:12.233Z,50.03
2023-02-12T23:02:41.050Z,50.23
2023-02-12T23:05:09.769Z,51.67
2023-02-12T23:07:38.393Z,49.53
2023-02-12T23:10:07.815Z,50.00
2023-02-12T23:12:36.410Z,49.00
2023-02-12T23:15:05.327Z,50.83
2023-02-12T23:17:34.689Z,48.10
2023-02-12T23:20:03.355Z,51.00
2023-02-12T23:22:31.986Z,49.33
2023-02-12T23:25:05.289Z,48.27
2023-02-12T23:27:34.021Z,49.60
2023-02-12T23:30:02.746Z,48.70
2023-02-12T23:32:32.940Z,49.20
2023-02-12T23:35:01.613Z,48.60
2023-02-12T23:37:30.315Z,52.13
2023-02-12T23:39:58.939Z,49.10
2023-02-12T23:42:27.652Z,46.80
2023-02-12T23:44:57.632Z,48.07
2023-02-12T23:47:26.549Z,46.03
2023-02-12T23:49:55.133Z,46.73
2023-02-12T23:52:23.683Z,45.97
2023-02-12T23:54:52.326Z,46.33
2023-02-12T23:57:20.994Z,47.67
2023-02-12T23:59:49.718Z,47.07
